sensor_id;sensor_type;location;lat;lon;timestamp;pressure;altitude;pressure_sealevel;temperature;humidity
48614;BME280;34408;51.426;5.444;2023-03-01T00:01:10;103007.00;;;6.01;42.92
48614;BME280;34408;51.426;5.444;2023-03-01T00:03:40;103025.97;;;6.08;42.89
48614;BME280;34408;51.426;5.444;2023-03-01T00:06:09;103028.50;;;6.09;42.88
48614;BME280;34408;51.426;5.444;2023-03-01T00:08:37;103025.97;;;6.08;42.94
48614;BME280;34408;51.426;5.444;2023-03-01T00:11:07;103027.78;;;6.07;43.14
48614;BME280;34408;51.426;5.444;2023-03-01T00:13:35;103029.03;;;6.03;42.93
48614;BME280;34408;51.426;5.444;2023-03-01T00:16:04;103028.78;;;6.06;43.23
48614;BME280;34408;51.426;5.444;2023-03-01T00:18:32;103030.03;;;6.02;42.88
48614;BME280;34408;51.426;5.444;2023-03-01T00:21:02;103037.34;;;6.00;42.86
48614;BME280;34408;51.426;5.444;2023-03-01T00:23:30;103035.66;;;5.99;42.71
48614;BME280;34408;51.426;5.444;2023-03-01T00:25:58;103020.75;;;5.97;43.14
48614;BME280;34408;51.426;5.444;2023-03-01T00:28:26;103028.75;;;5.97;42.87
48614;BME280;34408;51.426;5.444;2023-03-01T00:30:54;103019.91;;;5.96;43.18
48614;BME280;34408;51.426;5.444;2023-03-01T00:33:22;103021.72;;;5.96;43.25
48614;BME280;34408;51.426;5.444;2023-03-01T00:35:49;103019.91;;;5.96;43.39
48614;BME280;34408;51.426;5.444;2023-03-01T00:38:18;103026.22;;;5.95;43.36
48614;BME280;34408;51.426;5.444;2023-03-01T00:40:46;103022.72;;;5.95;42.93
48614;BME280;34408;51.426;5.444;2023-03-01T00:43:14;103027.22;;;5.94;42.98
48614;BME280;34408;51.426;5.444;2023-03-01T00:45:42;103019.19;;;5.94;43.02
48614;BME280;34408;51.426;5.444;2023-03-01T00:48:09;103017.50;;;5.93;43.05
48614;BME280;34408;51.426;5.444;2023-03-01T00:50:37;103017.78;;;5.90;42.92
48614;BME280;34408;51.426;5.444;2023-03-01T00:53:05;103019.72;;;5.88;43.13
48614;BME280;34408;51.426;5.444;2023-03-01T00:55:36;103019.00;;;5.86;43.04
48614;BME280;34408;51.426;5.444;2023-03-01T00:58:03;103017.31;;;5.85;43.22
48614;BME280;34408;51.426;5.444;2023-03-01T01:00:31;103006.66;;;5.85;43.37
48614;BME280;34408;51.426;5.444;2023-03-01T01:03:00;103001.59;;;5.82;43.32
48614;BME280;34408;51.426;5.444;2023-03-01T01:05:27;103002.44;;;5.82;43.36
48614;BME280;34408;51.426;5.444;2023-03-01T01:07:55;102998.22;;;5.80;43.23
48614;BME280;34408;51.426;5.444;2023-03-01T01:10:23;102997.25;;;5.81;43.49
48614;BME280;34408;51.426;5.444;2023-03-01T01:12:52;102993.03;;;5.78;43.24
48614;BME280;34408;51.426;5.444;2023-03-01T01:15:20;102992.19;;;5.78;43.61
48614;BME280;34408;51.426;5.444;2023-03-01T01:17:47;102985.16;;;5.77;43.11
48614;BME280;34408;51.426;5.444;2023-03-01T01:20:15;102994.00;;;5.77;43.07
48614;BME280;34408;51.426;5.444;2023-03-01T01:22:43;102992.44;;;5.75;43.41
48614;BME280;34408;51.426;5.444;2023-03-01T01:25:12;102987.25;;;5.73;43.11
48614;BME280;34408;51.426;5.444;2023-03-01T01:27:39;102978.53;;;5.71;43.37
48614;BME280;34408;51.426;5.444;2023-03-01T01:30:10;102968.84;;;5.70;43.05
48614;BME280;34408;51.426;5.444;2023-03-01T01:32:38;102963.78;;;5.67;43.40
48614;BME280;34408;51.426;5.444;2023-03-01T01:35:06;102965.63;;;5.67;43.19
48614;BME280;34408;51.426;5.444;2023-03-01T01:37:34;102961.13;;;5.67;43.29
48614;BME280;34408;51.426;5.444;2023-03-01T01:40:03;102953.97;;;5.68;43.13
48614;BME280;34408;51.426;5.444;2023-03-01T01:42:31;102950.59;;;5.66;43.29
48614;BME280;34408;51.426;5.444;2023-03-01T01:45:30;102951.56;;;5.65;43.38
48614;BME280;34408;51.426;5.444;2023-03-01T01:48:02;102948.06;;;5.64;43.72
48614;BME280;34408;51.426;5.444;2023-03-01T01:50:32;102949.75;;;5.65;43.14
48614;BME280;34408;51.426;5.444;2023-03-01T01:53:07;102950.03;;;5.62;43.72
48614;BME280;34408;51.426;5.444;2023-03-01T01:55:37;102943.00;;;5.61;43.40
48614;BME280;34408;51.426;5.444;2023-03-01T01:58:08;102947.50;;;5.61;43.45
48614;BME280;34408;51.426;5.444;2023-03-01T02:00:38;102944.25;;;5.57;43.59
48614;BME280;34408;51.426;5.444;2023-03-01T02:03:10;102943.56;;;5.55;43.40
48614;BME280;34408;51.426;5.444;2023-03-01T02:05:44;102940.19;;;5.53;43.99
48614;BME280;34408;51.426;5.444;2023-03-01T02:08:23;102937.50;;;5.53;43.90
48614;BME280;34408;51.426;5.444;2023-03-01T02:10:53;102930.19;;;5.45;43.67
48614;BME280;34408;51.426;5.444;2023-03-01T02:13:22;102930.63;;;5.50;44.13
48614;BME280;34408;51.426;5.444;2023-03-01T02:15:51;102929.78;;;5.50;43.53
48614;BME280;34408;51.426;5.444;2023-03-01T02:18:21;102923.75;;;5.48;43.68
48614;BME280;34408;51.426;5.444;2023-03-01T02:21:01;102917.28;;;5.50;43.81
48614;BME280;34408;51.426;5.444;2023-03-01T02:23:33;102920.09;;;5.49;44.23
48614;BME280;34408;51.426;5.444;2023-03-01T02:26:05;102918.41;;;5.48;44.15
48614;BME280;34408;51.426;5.444;2023-03-01T02:28:40;102914.06;;;5.47;44.05
48614;BME280;34408;51.426;5.444;2023-03-01T02:31:10;102908.88;;;5.45;43.88
48614;BME280;34408;51.426;5.444;2023-03-01T02:33:56;102909.97;;;5.43;43.65
48614;BME280;34408;51.426;5.444;2023-03-01T02:36:25;102912.66;;;5.43;43.89
48614;BME280;34408;51.426;5.444;2023-03-01T02:38:57;102918.97;;;5.42;44.12
48614;BME280;34408;51.426;5.444;2023-03-01T02:41:28;102920.78;;;5.41;43.84
48614;BME280;34408;51.426;5.444;2023-03-01T02:43:59;102921.06;;;5.38;43.98
48614;BME280;34408;51.426;5.444;2023-03-01T02:46:27;102922.03;;;5.37;44.13
48614;BME280;34408;51.426;5.444;2023-03-01T02:48:57;102923.03;;;5.36;43.71
48614;BME280;34408;51.426;5.444;2023-03-01T02:51:42;102920.50;;;5.35;44.06
48614;BME280;34408;51.426;5.444;2023-03-01T02:54:20;102920.63;;;5.33;44.46
48614;BME280;34408;51.426;5.444;2023-03-01T02:56:50;102928.75;;;5.32;43.91
48614;BME280;34408;51.426;5.444;2023-03-01T02:59:22;102923.56;;;5.30;43.84
48614;BME280;34408;51.426;5.444;2023-03-01T03:01:52;102927.22;;;5.29;44.37
48614;BME280;34408;51.426;5.444;2023-03-01T03:04:20;102915.84;;;5.27;43.98
48614;BME280;34408;51.426;5.444;2023-03-01T03:06:50;102922.16;;;5.26;44.42
48614;BME280;34408;51.426;5.444;2023-03-01T03:09:18;102919.63;;;5.24;44.45
48614;BME280;34408;51.426;5.444;2023-03-01T03:11:47;102918.78;;;5.24;44.18
48614;BME280;34408;51.426;5.444;2023-03-01T03:14:16;102917.09;;;5.23;44.53
48614;BME280;34408;51.426;5.444;2023-03-01T03:16:47;102916.25;;;5.22;44.30
48614;BME280;34408;51.426;5.444;2023-03-01T03:19:16;102911.75;;;5.23;44.32
48614;BME280;34408;51.426;5.444;2023-03-01T03:21:43;102913.72;;;5.21;44.38
48614;BME280;34408;51.426;5.444;2023-03-01T03:24:11;102915.41;;;5.22;44.34
48614;BME280;34408;51.426;5.444;2023-03-01T03:26:39;102900.25;;;5.13;44.18
48614;BME280;34408;51.426;5.444;2023-03-01T03:29:07;102916.38;;;5.21;44.12
48614;BME280;34408;51.426;5.444;2023-03-01T03:31:34;102907.53;;;5.20;44.11
48614;BME280;34408;51.426;5.444;2023-03-01T03:34:03;102902.38;;;5.19;44.41
48614;BME280;34408;51.426;5.444;2023-03-01T03:36:31;102913.59;;;5.22;44.45
48614;BME280;34408;51.426;5.444;2023-03-01T03:38:59;102909.94;;;5.23;44.69
48614;BME280;34408;51.426;5.444;2023-03-01T03:41:27;102912.06;;;5.20;44.55
48614;BME280;34408;51.426;5.444;2023-03-01T03:43:54;102906.88;;;5.18;44.62
48614;BME280;34408;51.426;5.444;2023-03-01T03:46:22;102895.19;;;5.10;44.75
48614;BME280;34408;51.426;5.444;2023-03-01T03:48:50;102901.53;;;5.18;44.17
48614;BME280;34408;51.426;5.444;2023-03-01T03:51:19;102900.81;;;5.16;44.80
48614;BME280;34408;51.426;5.444;2023-03-01T03:53:49;102906.03;;;5.18;44.15
48614;BME280;34408;51.426;5.444;2023-03-01T03:56:16;102901.81;;;5.15;44.09
48614;BME280;34408;51.426;5.444;2023-03-01T03:58:44;102906.44;;;5.13;44.45
48614;BME280;34408;51.426;5.444;2023-03-01T04:01:12;102901.09;;;5.13;44.80
48614;BME280;34408;51.426;5.444;2023-03-01T04:03:39;102904.03;;;5.10;44.88
48614;BME280;34408;51.426;5.444;2023-03-01T04:06:13;102890.84;;;5.09;44.35
48614;BME280;34408;51.426;5.444;2023-03-01T04:08:42;102896.31;;;5.07;44.78
48614;BME280;34408;51.426;5.444;2023-03-01T04:11:11;102886.19;;;5.01;44.43
48614;BME280;34408;51.426;5.444;2023-03-01T04:13:56;102890.53;;;5.02;44.80
48614;BME280;34408;51.426;5.444;2023-03-01T04:16:24;102885.09;;;5.04;45.23
48614;BME280;34408;51.426;5.444;2023-03-01T04:18:52;102884.94;;;5.05;44.98
48614;BME280;34408;51.426;5.444;2023-03-01T04:21:21;102886.91;;;5.03;44.99
48614;BME280;34408;51.426;5.444;2023-03-01T04:23:50;102882.56;;;5.02;44.54
48614;BME280;34408;51.426;5.444;2023-03-01T04:26:20;102886.34;;;5.00;44.97
48614;BME280;34408;51.426;5.444;2023-03-01T04:28:48;102886.47;;;4.98;44.56
48614;BME280;34408;51.426;5.444;2023-03-01T04:31:18;102878.47;;;4.98;45.18
48614;BME280;34408;51.426;5.444;2023-03-01T04:33:49;102876.66;;;4.99;45.26
48614;BME280;34408;51.426;5.444;2023-03-01T04:36:19;102877.75;;;4.96;44.94
48614;BME280;34408;51.426;5.444;2023-03-01T04:38:47;102871.72;;;4.94;44.56
48614;BME280;34408;51.426;5.444;2023-03-01T04:41:19;102874.66;;;4.91;44.74
48614;BME280;34408;51.426;5.444;2023-03-01T04:43:47;102870.19;;;4.92;44.76
48614;BME280;34408;51.426;5.444;2023-03-01T04:46:16;102867.38;;;4.93;45.20
48614;BME280;34408;51.426;5.444;2023-03-01T04:48:46;102843.50;;;4.82;45.04
48614;BME280;34408;51.426;5.444;2023-03-01T04:51:14;102839.16;;;4.81;44.51
48614;BME280;34408;51.426;5.444;2023-03-01T04:53:43;102845.75;;;4.86;45.46
48614;BME280;34408;51.426;5.444;2023-03-01T04:56:11;102844.06;;;4.85;44.65
48614;BME280;34408;51.426;5.444;2023-03-01T04:58:41;102855.72;;;4.84;45.15
48614;BME280;34408;51.426;5.444;2023-03-01T05:01:10;102860.06;;;4.85;45.42
48614;BME280;34408;51.426;5.444;2023-03-01T05:03:42;102854.03;;;4.83;45.30
48614;BME280;34408;51.426;5.444;2023-03-01T05:06:11;102856.81;;;4.82;45.23
48614;BME280;34408;51.426;5.444;2023-03-01T05:08:39;102860.47;;;4.81;44.92
48614;BME280;34408;51.426;5.444;2023-03-01T05:11:08;102869.44;;;4.80;45.38
48614;BME280;34408;51.426;5.444;2023-03-01T05:13:37;102865.78;;;4.81;45.36
48614;BME280;34408;51.426;5.444;2023-03-01T05:16:07;102862.28;;;4.80;45.23
48614;BME280;34408;51.426;5.444;2023-03-01T05:18:38;102866.06;;;4.78;45.13
48614;BME280;34408;51.426;5.444;2023-03-01T05:21:08;102853.59;;;4.78;45.56
48614;BME280;34408;51.426;5.444;2023-03-01T05:23:36;102839.97;;;4.72;45.45
48614;BME280;34408;51.426;5.444;2023-03-01T05:26:05;102846.84;;;4.74;45.43
48614;BME280;34408;51.426;5.444;2023-03-01T05:28:48;102836.31;;;4.73;45.23
48614;BME280;34408;51.426;5.444;2023-03-01T05:31:17;102837.03;;;4.75;45.26
48614;BME280;34408;51.426;5.444;2023-03-01T05:33:45;102837.03;;;4.75;45.62
48614;BME280;34408;51.426;5.444;2023-03-01T05:36:13;102834.38;;;4.75;45.48
48614;BME280;34408;51.426;5.444;2023-03-01T05:38:40;102822.88;;;4.74;45.56
48614;BME280;34408;51.426;5.444;2023-03-01T05:41:14;102823.13;;;4.71;45.35
48614;BME280;34408;51.426;5.444;2023-03-01T05:43:41;102813.47;;;4.70;45.80
48614;BME280;34408;51.426;5.444;2023-03-01T05:46:11;102821.59;;;4.69;45.88
48614;BME280;34408;51.426;5.444;2023-03-01T05:48:43;102811.75;;;4.60;45.87
48614;BME280;34408;51.426;5.444;2023-03-01T05:51:11;102824.13;;;4.70;45.33
48614;BME280;34408;51.426;5.444;2023-03-01T05:53:39;102824.97;;;4.71;45.14
48614;BME280;34408;51.426;5.444;2023-03-01T05:56:07;102825.09;;;4.69;45.69
48614;BME280;34408;51.426;5.444;2023-03-01T05:58:35;102817.09;;;4.69;45.35
48614;BME280;34408;51.426;5.444;2023-03-01T06:01:05;102824.97;;;4.71;45.28
48614;BME280;34408;51.426;5.444;2023-03-01T06:03:32;102817.94;;;4.70;45.67
48614;BME280;34408;51.426;5.444;2023-03-01T06:06:01;102823.28;;;4.70;45.22
48614;BME280;34408;51.426;5.444;2023-03-01T06:08:29;102817.69;;;4.73;45.69
48614;BME280;34408;51.426;5.444;2023-03-01T06:10:57;102816.47;;;4.86;45.50
48614;BME280;34408;51.426;5.444;2023-03-01T06:13:25;102807.22;;;5.00;44.88
48614;BME280;34408;51.426;5.444;2023-03-01T06:15:52;102814.56;;;5.17;44.38
48614;BME280;34408;51.426;5.444;2023-03-01T06:18:20;102812.44;;;5.31;43.99
48614;BME280;34408;51.426;5.444;2023-03-01T06:20:52;102820.16;;;5.53;43.52
48614;BME280;34408;51.426;5.444;2023-03-01T06:23:22;102818.91;;;5.67;43.19
48614;BME280;34408;51.426;5.444;2023-03-01T06:25:51;102812.28;;;5.80;43.28
48614;BME280;34408;51.426;5.444;2023-03-01T06:28:19;102818.06;;;5.95;42.62
48614;BME280;34408;51.426;5.444;2023-03-01T06:30:47;102823.38;;;6.05;42.22
48614;BME280;34408;51.426;5.444;2023-03-01T06:33:14;102822.94;;;6.09;41.87
48614;BME280;34408;51.426;5.444;2023-03-01T06:35:42;102825.03;;;6.15;42.26
48614;BME280;34408;51.426;5.444;2023-03-01T06:38:10;102823.66;;;6.11;42.31
48614;BME280;34408;51.426;5.444;2023-03-01T06:40:39;102829.44;;;5.97;42.38
48614;BME280;34408;51.426;5.444;2023-03-01T06:43:07;102833.50;;;5.82;42.90
48614;BME280;34408;51.426;5.444;2023-03-01T06:45:36;102825.34;;;5.64;43.04
48614;BME280;34408;51.426;5.444;2023-03-01T06:48:05;102818.63;;;5.50;43.35
48614;BME280;34408;51.426;5.444;2023-03-01T06:50:34;102824.94;;;5.40;43.69
48614;BME280;34408;51.426;5.444;2023-03-01T06:53:02;102818.88;;;5.28;44.31
48614;BME280;34408;51.426;5.444;2023-03-01T06:55:30;102826.59;;;5.21;44.46
48614;BME280;34408;51.426;5.444;2023-03-01T06:58:01;102819.19;;;5.15;44.19
48614;BME280;34408;51.426;5.444;2023-03-01T07:00:29;102810.91;;;5.09;44.66
48614;BME280;34408;51.426;5.444;2023-03-01T07:02:58;102813.00;;;5.05;44.43
48614;BME280;34408;51.426;5.444;2023-03-01T07:05:27;102811.59;;;5.01;44.81
48614;BME280;34408;51.426;5.444;2023-03-01T07:07:55;102812.84;;;4.97;45.10
48614;BME280;34408;51.426;5.444;2023-03-01T07:10:23;102812.13;;;4.95;44.84
48614;BME280;34408;51.426;5.444;2023-03-01T07:12:54;102803.28;;;4.85;44.78
48614;BME280;34408;51.426;5.444;2023-03-01T07:15:24;102823.88;;;4.83;45.00
48614;BME280;34408;51.426;5.444;2023-03-01T07:17:52;102821.50;;;4.80;45.09
48614;BME280;34408;51.426;5.444;2023-03-01T07:20:20;102836.75;;;4.78;45.13
48614;BME280;34408;51.426;5.444;2023-03-01T07:22:50;102837.59;;;4.78;45.56
48614;BME280;34408;51.426;5.444;2023-03-01T07:25:18;102837.75;;;4.77;45.28
48614;BME280;34408;51.426;5.444;2023-03-01T07:27:49;102845.03;;;4.75;45.72
48614;BME280;34408;51.426;5.444;2023-03-01T07:30:17;102838.13;;;4.72;45.87
48614;BME280;34408;51.426;5.444;2023-03-01T07:32:46;102843.47;;;4.72;45.07
48614;BME280;34408;51.426;5.444;2023-03-01T07:35:14;102840.94;;;4.71;45.34
48614;BME280;34408;51.426;5.444;2023-03-01T07:37:42;102841.22;;;4.68;46.01
48614;BME280;34408;51.426;5.444;2023-03-01T07:40:11;102842.19;;;4.67;45.06
48614;BME280;34408;51.426;5.444;2023-03-01T07:42:39;102835.44;;;4.63;46.06
48614;BME280;34408;51.426;5.444;2023-03-01T07:45:07;102844.00;;;4.66;45.57
48614;BME280;34408;51.426;5.444;2023-03-01T07:47:35;102844.00;;;4.66;45.52
48614;BME280;34408;51.426;5.444;2023-03-01T07:50:06;102845.81;;;4.66;45.70
48614;BME280;34408;51.426;5.444;2023-03-01T07:52:33;102841.47;;;4.65;45.56
48614;BME280;34408;51.426;5.444;2023-03-01T07:55:01;102843.28;;;4.64;45.65
48614;BME280;34408;51.426;5.444;2023-03-01T07:57:29;102837.13;;;4.64;46.05
48614;BME280;34408;51.426;5.444;2023-03-01T07:59:57;102837.84;;;4.66;46.19
48614;BME280;34408;51.426;5.444;2023-03-01T08:02:25;102836.28;;;4.63;45.64
48614;BME280;34408;51.426;5.444;2023-03-01T08:04:53;102839.78;;;4.64;45.85
48614;BME280;34408;51.426;5.444;2023-03-01T08:07:22;102837.13;;;4.64;45.98
48614;BME280;34408;51.426;5.444;2023-03-01T08:09:50;102843.44;;;4.63;46.23
48614;BME280;34408;51.426;5.444;2023-03-01T08:12:17;102841.59;;;4.63;45.72
48614;BME280;34408;51.426;5.444;2023-03-01T08:14:45;102842.44;;;4.64;45.47
48614;BME280;34408;51.426;5.444;2023-03-01T08:17:13;102832.91;;;4.61;46.10
48614;BME280;34408;51.426;5.444;2023-03-01T08:19:42;102836.16;;;4.65;46.57
48614;BME280;34408;51.426;5.444;2023-03-01T08:22:10;102829.00;;;4.65;45.90
48614;BME280;34408;51.426;5.444;2023-03-01T08:24:39;102830.81;;;4.65;46.47
48614;BME280;34408;51.426;5.444;2023-03-01T08:27:07;102828.44;;;4.62;46.01
48614;BME280;34408;51.426;5.444;2023-03-01T08:29:35;102832.50;;;4.66;46.16
48614;BME280;34408;51.426;5.444;2023-03-01T08:32:03;102838.69;;;4.66;45.90
48614;BME280;34408;51.426;5.444;2023-03-01T08:34:31;102836.00;;;4.66;45.89
48614;BME280;34408;51.426;5.444;2023-03-01T08:36:58;102825.50;;;4.65;46.52
48614;BME280;34408;51.426;5.444;2023-03-01T08:39:26;102818.34;;;4.65;46.12
48614;BME280;34408;51.426;5.444;2023-03-01T08:41:56;102821.84;;;4.66;45.97
48614;BME280;34408;51.426;5.444;2023-03-01T08:44:24;102819.06;;;4.67;46.62
48614;BME280;34408;51.426;5.444;2023-03-01T08:46:52;102815.56;;;4.67;46.42
48614;BME280;34408;51.426;5.444;2023-03-01T08:49:22;102816.25;;;4.69;45.86
48614;BME280;34408;51.426;5.444;2023-03-01T08:51:50;102816.25;;;4.69;45.87
48614;BME280;34408;51.426;5.444;2023-03-01T08:54:19;102799.13;;;4.62;46.07
48614;BME280;34408;51.426;5.444;2023-03-01T08:56:48;102802.69;;;4.72;46.71
48614;BME280;34408;51.426;5.444;2023-03-01T08:59:18;102803.78;;;4.69;45.92
48614;BME280;34408;51.426;5.444;2023-03-01T09:01:45;102795.34;;;4.64;46.48
48614;BME280;34408;51.426;5.444;2023-03-01T09:04:14;102800.28;;;4.69;45.97
48614;BME280;34408;51.426;5.444;2023-03-01T09:06:42;102808.56;;;4.75;45.97
48614;BME280;34408;51.426;5.444;2023-03-01T09:09:13;102803.38;;;4.74;46.40
48614;BME280;34408;51.426;5.444;2023-03-01T09:11:42;102802.41;;;4.75;46.73
48614;BME280;34408;51.426;5.444;2023-03-01T09:14:12;102796.94;;;4.76;45.93
48614;BME280;34408;51.426;5.444;2023-03-01T09:16:42;102794.53;;;4.73;46.88
48614;BME280;34408;51.426;5.444;2023-03-01T09:19:10;102786.56;;;4.73;46.68
48614;BME280;34408;51.426;5.444;2023-03-01T09:21:37;102782.91;;;4.74;47.01
48614;BME280;34408;51.426;5.444;2023-03-01T09:24:12;102790.78;;;4.76;46.49
48614;BME280;34408;51.426;5.444;2023-03-01T09:26:41;102780.25;;;4.74;46.56
48614;BME280;34408;51.426;5.444;2023-03-01T09:29:09;102778.28;;;4.76;46.39
48614;BME280;34408;51.426;5.444;2023-03-01T09:31:37;102781.81;;;4.77;46.78
48614;BME280;34408;51.426;5.444;2023-03-01T09:34:07;102781.81;;;4.77;46.75
48614;BME280;34408;51.426;5.444;2023-03-01T09:36:35;102784.31;;;4.78;46.38
48614;BME280;34408;51.426;5.444;2023-03-01T09:39:04;102787.69;;;4.80;46.38
48614;BME280;34408;51.426;5.444;2023-03-01T09:41:48;102779.97;;;4.77;46.77
48614;BME280;34408;51.426;5.444;2023-03-01T09:44:36;102777.03;;;4.80;47.03
48614;BME280;34408;51.426;5.444;2023-03-01T09:47:09;102764.97;;;4.76;46.68
48614;BME280;34408;51.426;5.444;2023-03-01T09:49:41;102767.63;;;4.76;46.91
48614;BME280;34408;51.426;5.444;2023-03-01T09:52:23;102754.06;;;4.79;47.39
48614;BME280;34408;51.426;5.444;2023-03-01T09:54:55;102752.09;;;4.81;46.46
48614;BME280;34408;51.426;5.444;2023-03-01T09:57:30;102742.28;;;4.82;47.05
48614;BME280;34408;51.426;5.444;2023-03-01T10:00:12;102753.63;;;4.84;47.09
48614;BME280;34408;51.426;5.444;2023-03-01T10:02:43;102750.84;;;4.85;46.48
48614;BME280;34408;51.426;5.444;2023-03-01T10:05:23;102741.16;;;4.84;46.98
48614;BME280;34408;51.426;5.444;2023-03-01T10:08:02;102738.50;;;4.84;46.65
48614;BME280;34408;51.426;5.444;2023-03-01T10:10:36;102727.00;;;4.94;46.43
48614;BME280;34408;51.426;5.444;2023-03-01T10:13:13;102731.78;;;5.09;46.24
48614;BME280;34408;51.426;5.444;2023-03-01T10:15:44;102724.59;;;5.29;46.22
48614;BME280;34408;51.426;5.444;2023-03-01T10:18:18;102718.28;;;5.49;45.48
48614;BME280;34408;51.426;5.444;2023-03-01T10:20:53;102716.84;;;5.65;44.95
48614;BME280;34408;51.426;5.444;2023-03-01T10:23:22;102708.94;;;5.82;44.67
48614;BME280;34408;51.426;5.444;2023-03-01T10:26:00;102699.91;;;6.03;44.33
48614;BME280;34408;51.426;5.444;2023-03-01T10:28:39;102703.19;;;6.24;43.56
48614;BME280;34408;51.426;5.444;2023-03-01T10:31:14;102681.03;;;6.41;43.46
48614;BME280;34408;51.426;5.444;2023-03-01T10:33:44;102681.84;;;6.69;43.21
48614;BME280;34408;51.426;5.444;2023-03-01T10:36:15;102689.06;;;6.95;43.07
48614;BME280;34408;51.426;5.444;2023-03-01T10:38:48;102688.53;;;7.09;42.59
48614;BME280;34408;51.426;5.444;2023-03-01T10:41:18;102690.13;;;7.19;42.02
48614;BME280;34408;51.426;5.444;2023-03-01T10:43:48;102690.88;;;7.30;42.28
48614;BME280;34408;51.426;5.444;2023-03-01T10:46:24;102692.47;;;7.40;42.16
48614;BME280;34408;51.426;5.444;2023-03-01T10:49:07;102690.16;;;7.45;42.01
48614;BME280;34408;51.426;5.444;2023-03-01T10:51:41;102683.34;;;7.51;42.11
48614;BME280;34408;51.426;5.444;2023-03-01T10:54:16;102685.09;;;7.60;42.24
48614;BME280;34408;51.426;5.444;2023-03-01T10:56:49;102683.94;;;7.63;42.24
48614;BME280;34408;51.426;5.444;2023-03-01T10:59:26;102684.56;;;7.57;41.34
48614;BME280;34408;51.426;5.444;2023-03-01T11:02:04;102687.50;;;7.45;41.37
48614;BME280;34408;51.426;5.444;2023-03-01T11:05:01;102698.16;;;7.19;41.86
48614;BME280;34408;51.426;5.444;2023-03-01T11:07:46;102695.41;;;6.94;42.46
48614;BME280;34408;51.426;5.444;2023-03-01T11:10:18;102692.47;;;6.79;43.01
48614;BME280;34408;51.426;5.444;2023-03-01T11:12:46;102689.91;;;6.60;42.76
48614;BME280;34408;51.426;5.444;2023-03-01T11:15:23;102685.94;;;6.46;43.12
48614;BME280;34408;51.426;5.444;2023-03-01T11:17:51;102694.00;;;6.36;43.63
48614;BME280;34408;51.426;5.444;2023-03-01T11:20:35;102687.56;;;6.29;43.52
48614;BME280;34408;51.426;5.444;2023-03-01T11:23:09;102694.34;;;6.24;43.63
48614;BME280;34408;51.426;5.444;2023-03-01T11:25:41;102684.50;;;6.24;44.49
48614;BME280;34408;51.426;5.444;2023-03-01T11:28:14;102684.34;;;6.26;44.21
48614;BME280;34408;51.426;5.444;2023-03-01T11:30:50;102682.38;;;6.28;44.67
48614;BME280;34408;51.426;5.444;2023-03-01T11:33:38;102679.41;;;6.31;44.77
48614;BME280;34408;51.426;5.444;2023-03-01T11:36:15;102688.25;;;6.31;44.83
48614;BME280;34408;51.426;5.444;2023-03-01T11:38:45;102670.16;;;6.25;44.25
48614;BME280;34408;51.426;5.444;2023-03-01T11:41:15;102673.97;;;6.23;44.10
48614;BME280;34408;51.426;5.444;2023-03-01T11:43:50;102667.78;;;6.22;44.24
48614;BME280;34408;51.426;5.444;2023-03-01T11:46:40;102662.16;;;6.25;44.95
48614;BME280;34408;51.426;5.444;2023-03-01T11:49:35;102668.34;;;6.26;44.78
48614;BME280;34408;51.426;5.444;2023-03-01T11:52:16;102651.91;;;6.20;44.70
48614;BME280;34408;51.426;5.444;2023-03-01T11:54:58;102657.34;;;6.29;45.18
48614;BME280;34408;51.426;5.444;2023-03-01T11:57:43;102649.88;;;6.32;45.29
48614;BME280;34408;51.426;5.444;2023-03-01T12:00:28;102651.28;;;6.36;45.27
48614;BME280;34408;51.426;5.444;2023-03-01T12:03:25;102650.13;;;6.39;45.73
48614;BME280;34408;51.426;5.444;2023-03-01T12:06:07;102647.31;;;6.40;45.78
48614;BME280;34408;51.426;5.444;2023-03-01T12:08:41;102647.00;;;6.43;45.68
48614;BME280;34408;51.426;5.444;2023-03-01T12:11:23;102638.84;;;6.45;45.95
48614;BME280;34408;51.426;5.444;2023-03-01T12:14:12;102639.53;;;6.47;46.34
48614;BME280;34408;51.426;5.444;2023-03-01T12:17:11;102624.94;;;6.41;45.38
48614;BME280;34408;51.426;5.444;2023-03-01T12:20:07;102632.22;;;6.49;45.84
48614;BME280;34408;51.426;5.444;2023-03-01T12:22:48;102626.88;;;6.49;45.34
48614;BME280;34408;51.426;5.444;2023-03-01T12:25:31;102616.88;;;6.51;46.14
48614;BME280;34408;51.426;5.444;2023-03-01T12:28:21;102621.22;;;6.52;45.12
48614;BME280;34408;51.426;5.444;2023-03-01T12:31:23;102604.97;;;6.45;45.02
48614;BME280;34408;51.426;5.444;2023-03-01T12:34:03;102609.25;;;6.56;45.18
48614;BME280;34408;51.426;5.444;2023-03-01T12:36:51;102619.78;;;6.58;44.84
48614;BME280;34408;51.426;5.444;2023-03-01T12:39:36;102613.22;;;6.52;43.97
48614;BME280;34408;51.426;5.444;2023-03-01T12:42:13;102608.63;;;6.44;43.38
48614;BME280;34408;51.426;5.444;2023-03-01T12:44:57;102610.00;;;6.48;44.05
48614;BME280;34408;51.426;5.444;2023-03-01T12:47:48;102598.25;;;6.41;43.05
48614;BME280;34408;51.426;5.444;2023-03-01T12:50:22;102593.13;;;6.48;43.11
48614;BME280;34408;51.426;5.444;2023-03-01T12:52:52;102583.06;;;6.60;42.16
48614;BME280;34408;51.426;5.444;2023-03-01T12:55:27;102583.28;;;6.84;42.96
48614;BME280;34408;51.426;5.444;2023-03-01T12:58:04;102576.09;;;7.10;42.47
48614;BME280;34408;51.426;5.444;2023-03-01T13:00:42;102578.66;;;7.46;42.37
48614;BME280;34408;51.426;5.444;2023-03-01T13:03:19;102570.59;;;7.72;41.81
48614;BME280;34408;51.426;5.444;2023-03-01T13:06:01;102558.47;;;7.94;40.56
48614;BME280;34408;51.426;5.444;2023-03-01T13:08:39;102566.56;;;8.18;40.73
48614;BME280;34408;51.426;5.444;2023-03-01T13:11:16;102570.31;;;8.33;39.93
48614;BME280;34408;51.426;5.444;2023-03-01T13:13:45;102557.59;;;8.35;40.63
48614;BME280;34408;51.426;5.444;2023-03-01T13:16:40;102549.81;;;8.16;40.18
48614;BME280;34408;51.426;5.444;2023-03-01T13:19:13;102546.25;;;7.99;40.89
48614;BME280;34408;51.426;5.444;2023-03-01T13:21:43;102543.53;;;7.83;40.62
48614;BME280;34408;51.426;5.444;2023-03-01T13:24:25;102542.84;;;7.73;41.98